sensor_id;sensor_type;location;lat;lon;timestamp;P1;durP1;ratioP1;P2;durP2;ratioP2
55190;SDS011;41070;50.360;18.742;2022-07-01T00:02:53;13.20;;;11.70;;
55190;SDS011;41070;50.360;18.742;2022-07-01T00:05:57;15.00;;;12.30;;
55190;SDS011;41070;50.360;18.742;2022-07-01T00:11:53;14.10;;;12.40;;
55190;SDS011;41070;50.360;18.742;2022-07-01T00:14:22;14.70;;;11.10;;
55190;SDS011;41070;50.360;18.742;2022-07-01T00:16:50;13.90;;;12.20;;
55190;SDS011;41070;50.360;18.742;2022-07-01T00:19:18;14.90;;;12.30;;
55190;SDS011;41070;50.360;18.742;2022-07-01T00:21:46;13.90;;;12.10;;
55190;SDS011;41070;50.360;18.742;2022-07-01T00:24:14;13.80;;;12.10;;
55190;SDS011;41070;50.360;18.742;2022-07-01T00:26:49;16.10;;;12.50;;
55190;SDS011;41070;50.360;18.742;2022-07-01T00:29:41;15.90;;;12.30;;
55190;SDS011;41070;50.360;18.742;2022-07-01T00:32:20;14.50;;;12.90;;
55190;SDS011;41070;50.360;18.742;2022-07-01T00:34:48;15.10;;;12.50;;
55190;SDS011;41070;50.360;18.742;2022-07-01T00:37:38;14.70;;;13.10;;
55190;SDS011;41070;50.360;18.742;2022-07-01T00:40:16;14.90;;;13.10;;
55190;SDS011;41070;50.360;18.742;2022-07-01T00:43:00;15.60;;;12.50;;
55190;SDS011;41070;50.360;18.742;2022-07-01T00:46:08;16.90;;;12.80;;
55190;SDS011;41070;50.360;18.742;2022-07-01T00:48:42;15.60;;;12.40;;
55190;SDS011;41070;50.360;18.742;2022-07-01T00:51:31;14.40;;;12.60;;
55190;SDS011;41070;50.360;18.742;2022-07-01T00:54:00;17.00;;;14.00;;
55190;SDS011;41070;50.360;18.742;2022-07-01T00:56:29;17.40;;;14.60;;
55190;SDS011;41070;50.360;18.742;2022-07-01T00:59:02;19.60;;;15.00;;
55190;SDS011;41070;50.360;18.742;2022-07-01T01:01:44;18.80;;;15.30;;
55190;SDS011;41070;50.360;18.742;2022-07-01T01:04:31;20.60;;;16.00;;
55190;SDS011;41070;50.360;18.742;2022-07-01T01:07:14;21.70;;;16.00;;
55190;SDS011;41070;50.360;18.742;2022-07-01T01:10:27;25.30;;;16.20;;
55190;SDS011;41070;50.360;18.742;2022-07-01T01:13:09;21.30;;;16.60;;
55190;SDS011;41070;50.360;18.742;2022-07-01T01:15:57;22.80;;;16.30;;
55190;SDS011;41070;50.360;18.742;2022-07-01T01:18:56;20.70;;;15.10;;
55190;SDS011;41070;50.360;18.742;2022-07-01T01:21:36;17.90;;;16.00;;
55190;SDS011;41070;50.360;18.742;2022-07-01T01:24:12;19.30;;;16.70;;
55190;SDS011;41070;50.360;18.742;2022-07-01T01:27:20;19.20;;;16.40;;
55190;SDS011;41070;50.360;18.742;2022-07-01T01:30:12;20.50;;;16.50;;
55190;SDS011;41070;50.360;18.742;2022-07-01T01:32:50;19.50;;;16.30;;
55190;SDS011;41070;50.360;18.742;2022-07-01T01:35:30;17.40;;;14.70;;
55190;SDS011;41070;50.360;18.742;2022-07-01T01:38:09;19.70;;;17.20;;
55190;SDS011;41070;50.360;18.742;2022-07-01T01:40:49;24.80;;;16.70;;
55190;SDS011;41070;50.360;18.742;2022-07-01T01:43:35;20.60;;;17.30;;
55190;SDS011;41070;50.360;18.742;2022-07-01T01:46:17;22.10;;;16.70;;
55190;SDS011;41070;50.360;18.742;2022-07-01T01:48:57;18.30;;;15.80;;
55190;SDS011;41070;50.360;18.742;2022-07-01T01:51:29;21.20;;;15.80;;
55190;SDS011;41070;50.360;18.742;2022-07-01T01:54:25;23.60;;;16.50;;
55190;SDS011;41070;50.360;18.742;2022-07-01T01:59:56;19.40;;;15.40;;
55190;SDS011;41070;50.360;18.742;2022-07-01T02:02:44;23.30;;;16.70;;
55190;SDS011;41070;50.360;18.742;2022-07-01T02:05:33;21.00;;;15.70;;
55190;SDS011;41070;50.360;18.742;2022-07-01T02:08:29;21.40;;;16.00;;
55190;SDS011;41070;50.360;18.742;2022-07-01T02:11:25;18.90;;;14.80;;
55190;SDS011;41070;50.360;18.742;2022-07-01T02:14:21;20.50;;;16.10;;
55190;SDS011;41070;50.360;18.742;2022-07-01T02:25:31;23.70;;;16.50;;
55190;SDS011;41070;50.360;18.742;2022-07-01T02:46:47;26.90;;;15.50;;
55190;SDS011;41070;50.360;18.742;2022-07-01T02:59:59;24.70;;;17.80;;
55190;SDS011;41070;50.360;18.742;2022-07-01T03:09:04;17.40;;;15.10;;
55190;SDS011;41070;50.360;18.742;2022-07-01T03:11:43;19.90;;;16.20;;
55190;SDS011;41070;50.360;18.742;2022-07-01T03:14:37;22.70;;;14.80;;
55190;SDS011;41070;50.360;18.742;2022-07-01T03:17:46;21.10;;;13.80;;
55190;SDS011;41070;50.360;18.742;2022-07-01T03:32:11;19.90;;;15.80;;
55190;SDS011;41070;50.360;18.742;2022-07-01T03:34:57;23.60;;;17.10;;
55190;SDS011;41070;50.360;18.742;2022-07-01T03:38:07;27.70;;;17.00;;
55190;SDS011;41070;50.360;18.742;2022-07-01T03:40:54;23.00;;;16.10;;
55190;SDS011;41070;50.360;18.742;2022-07-01T03:43:25;19.70;;;15.90;;
55190;SDS011;41070;50.360;18.742;2022-07-01T03:45:55;20.20;;;15.50;;
55190;SDS011;41070;50.360;18.742;2022-07-01T03:48:46;24.20;;;17.20;;
55190;SDS011;41070;50.360;18.742;2022-07-01T04:13:55;20.80;;;15.60;;
55190;SDS011;41070;50.360;18.742;2022-07-01T04:32:47;16.00;;;14.30;;
55190;SDS011;41070;50.360;18.742;2022-07-01T04:38:52;14.70;;;13.10;;
55190;SDS011;41070;50.360;18.742;2022-07-01T04:41:42;19.80;;;14.20;;
55190;SDS011;41070;50.360;18.742;2022-07-01T04:48:48;16.80;;;14.50;;
55190;SDS011;41070;50.360;18.742;2022-07-01T04:51:15;17.00;;;13.40;;
55190;SDS011;41070;50.360;18.742;2022-07-01T04:53:43;15.20;;;13.70;;
55190;SDS011;41070;50.360;18.742;2022-07-01T04:56:10;16.30;;;14.10;;
55190;SDS011;41070;50.360;18.742;2022-07-01T04:58:38;17.10;;;12.80;;
55190;SDS011;41070;50.360;18.742;2022-07-01T05:01:05;16.30;;;13.40;;
55190;SDS011;41070;50.360;18.742;2022-07-01T05:03:33;15.70;;;13.20;;
55190;SDS011;41070;50.360;18.742;2022-07-01T05:06:01;15.40;;;12.80;;
55190;SDS011;41070;50.360;18.742;2022-07-01T05:08:29;15.80;;;12.90;;
55190;SDS011;41070;50.360;18.742;2022-07-01T05:10:56;15.40;;;11.90;;
55190;SDS011;41070;50.360;18.742;2022-07-01T05:13:24;15.20;;;12.50;;
55190;SDS011;41070;50.360;18.742;2022-07-01T05:15:51;15.10;;;12.50;;
55190;SDS011;41070;50.360;18.742;2022-07-01T05:18:19;14.60;;;12.80;;
55190;SDS011;41070;50.360;18.742;2022-07-01T05:21:04;14.70;;;11.70;;
55190;SDS011;41070;50.360;18.742;2022-07-01T05:23:49;13.80;;;11.70;;
55190;SDS011;41070;50.360;18.742;2022-07-01T05:26:16;12.70;;;11.00;;
55190;SDS011;41070;50.360;18.742;2022-07-01T05:28:44;14.60;;;12.30;;
55190;SDS011;41070;50.360;18.742;2022-07-01T05:31:12;16.60;;;12.80;;
55190;SDS011;41070;50.360;18.742;2022-07-01T05:33:40;12.30;;;11.00;;
55190;SDS011;41070;50.360;18.742;2022-07-01T05:36:08;13.30;;;11.40;;
55190;SDS011;41070;50.360;18.742;2022-07-01T05:38:36;13.30;;;11.80;;
55190;SDS011;41070;50.360;18.742;2022-07-01T05:41:04;13.30;;;11.90;;
55190;SDS011;41070;50.360;18.742;2022-07-01T05:43:32;17.30;;;11.50;;
55190;SDS011;41070;50.360;18.742;2022-07-01T05:46:01;12.30;;;11.00;;
55190;SDS011;41070;50.360;18.742;2022-07-01T05:48:28;12.80;;;11.30;;
55190;SDS011;41070;50.360;18.742;2022-07-01T05:50:56;11.50;;;10.40;;
55190;SDS011;41070;50.360;18.742;2022-07-01T05:53:24;11.30;;;10.10;;
55190;SDS011;41070;50.360;18.742;2022-07-01T05:55:51;12.30;;;10.00;;
55190;SDS011;41070;50.360;18.742;2022-07-01T05:58:19;12.70;;;10.50;;
55190;SDS011;41070;50.360;18.742;2022-07-01T06:00:47;13.10;;;11.20;;
55190;SDS011;41070;50.360;18.742;2022-07-01T06:03:14;13.20;;;11.10;;
55190;SDS011;41070;50.360;18.742;2022-07-01T06:05:42;12.80;;;10.30;;
55190;SDS011;41070;50.360;18.742;2022-07-01T06:08:10;12.10;;;10.40;;
55190;SDS011;41070;50.360;18.742;2022-07-01T06:10:37;15.60;;;12.80;;
55190;SDS011;41070;50.360;18.742;2022-07-01T06:13:05;11.90;;;10.10;;
55190;SDS011;41070;50.360;18.742;2022-07-01T06:15:33;11.70;;;10.50;;
55190;SDS011;41070;50.360;18.742;2022-07-01T06:18:00;10.60;;;9.60;;
55190;SDS011;41070;50.360;18.742;2022-07-01T06:20:28;11.50;;;9.90;;
55190;SDS011;41070;50.360;18.742;2022-07-01T06:22:56;12.20;;;10.60;;
55190;SDS011;41070;50.360;18.742;2022-07-01T06:25:24;11.80;;;10.00;;
55190;SDS011;41070;50.360;18.742;2022-07-01T06:27:51;13.40;;;10.20;;
55190;SDS011;41070;50.360;18.742;2022-07-01T06:30:19;10.80;;;9.80;;
55190;SDS011;41070;50.360;18.742;2022-07-01T06:32:46;9.40;;;8.50;;
55190;SDS011;41070;50.360;18.742;2022-07-01T06:35:14;10.70;;;9.60;;
55190;SDS011;41070;50.360;18.742;2022-07-01T06:37:42;12.60;;;9.10;;
55190;SDS011;41070;50.360;18.742;2022-07-01T06:40:10;10.60;;;8.70;;
55190;SDS011;41070;50.360;18.742;2022-07-01T06:42:38;10.50;;;8.70;;
55190;SDS011;41070;50.360;18.742;2022-07-01T06:45:05;9.90;;;9.00;;
55190;SDS011;41070;50.360;18.742;2022-07-01T06:47:33;9.90;;;8.60;;
55190;SDS011;41070;50.360;18.742;2022-07-01T06:50:03;9.80;;;7.80;;
55190;SDS011;41070;50.360;18.742;2022-07-01T06:52:32;10.20;;;9.10;;
55190;SDS011;41070;50.360;18.742;2022-07-01T06:55:08;10.30;;;8.20;;
55190;SDS011;41070;50.360;18.742;2022-07-01T06:58:18;10.70;;;8.60;;
55190;SDS011;41070;50.360;18.742;2022-07-01T07:01:06;10.00;;;8.20;;
55190;SDS011;41070;50.360;18.742;2022-07-01T07:03:37;11.10;;;9.00;;
55190;SDS011;41070;50.360;18.742;2022-07-01T07:06:07;9.50;;;8.50;;
55190;SDS011;41070;50.360;18.742;2022-07-01T07:11:26;9.40;;;8.20;;
55190;SDS011;41070;50.360;18.742;2022-07-01T07:14:20;10.80;;;7.80;;
55190;SDS011;41070;50.360;18.742;2022-07-01T07:16:48;13.70;;;9.70;;
55190;SDS011;41070;50.360;18.742;2022-07-01T07:19:17;13.10;;;9.70;;
55190;SDS011;41070;50.360;18.742;2022-07-01T07:21:45;11.50;;;8.50;;
55190;SDS011;41070;50.360;18.742;2022-07-01T07:24:13;12.90;;;9.20;;
55190;SDS011;41070;50.360;18.742;2022-07-01T07:26:57;11.00;;;9.00;;
55190;SDS011;41070;50.360;18.742;2022-07-01T07:29:27;11.10;;;9.70;;
55190;SDS011;41070;50.360;18.742;2022-07-01T07:32:05;11.80;;;9.40;;
55190;SDS011;41070;50.360;18.742;2022-07-01T07:34:38;13.10;;;9.50;;
55190;SDS011;41070;50.360;18.742;2022-07-01T07:37:09;9.10;;;8.20;;
55190;SDS011;41070;50.360;18.742;2022-07-01T07:39:47;10.50;;;8.70;;
55190;SDS011;41070;50.360;18.742;2022-07-01T07:42:20;12.90;;;9.90;;
55190;SDS011;41070;50.360;18.742;2022-07-01T07:44:48;9.30;;;8.50;;
55190;SDS011;41070;50.360;18.742;2022-07-01T07:47:26;11.30;;;9.70;;
55190;SDS011;41070;50.360;18.742;2022-07-01T07:52:46;10.60;;;9.40;;
55190;SDS011;41070;50.360;18.742;2022-07-01T07:55:15;15.60;;;9.70;;
55190;SDS011;41070;50.360;18.742;2022-07-01T07:57:47;13.10;;;9.40;;
55190;SDS011;41070;50.360;18.742;2022-07-01T08:00:18;10.10;;;9.10;;
55190;SDS011;41070;50.360;18.742;2022-07-01T08:02:46;11.30;;;8.50;;
55190;SDS011;41070;50.360;18.742;2022-07-01T08:05:14;10.50;;;8.60;;
55190;SDS011;41070;50.360;18.742;2022-07-01T08:07:42;9.30;;;8.10;;
55190;SDS011;41070;50.360;18.742;2022-07-01T08:10:11;11.80;;;9.00;;
55190;SDS011;41070;50.360;18.742;2022-07-01T08:12:40;11.00;;;8.70;;
55190;SDS011;41070;50.360;18.742;2022-07-01T08:15:08;11.70;;;9.20;;
55190;SDS011;41070;50.360;18.742;2022-07-01T08:17:36;10.20;;;9.20;;
55190;SDS011;41070;50.360;18.742;2022-07-01T08:20:04;11.30;;;8.50;;
55190;SDS011;41070;50.360;18.742;2022-07-01T08:22:32;10.40;;;8.30;;
55190;SDS011;41070;50.360;18.742;2022-07-01T08:25:00;13.60;;;8.90;;
55190;SDS011;41070;50.360;18.742;2022-07-01T08:34:39;13.90;;;9.00;;
55190;SDS011;41070;50.360;18.742;2022-07-01T08:37:07;9.80;;;8.60;;
55190;SDS011;41070;50.360;18.742;2022-07-01T08:39:36;8.60;;;7.70;;
55190;SDS011;41070;50.360;18.742;2022-07-01T08:42:03;8.70;;;7.50;;
55190;SDS011;41070;50.360;18.742;2022-07-01T08:44:34;9.90;;;7.40;;
55190;SDS011;41070;50.360;18.742;2022-07-01T08:47:03;10.10;;;7.70;;
55190;SDS011;41070;50.360;18.742;2022-07-01T08:49:31;9.50;;;7.60;;
55190;SDS011;41070;50.360;18.742;2022-07-01T08:52:00;9.30;;;7.70;;
55190;SDS011;41070;50.360;18.742;2022-07-01T08:54:29;10.30;;;8.50;;
55190;SDS011;41070;50.360;18.742;2022-07-01T08:56:57;10.50;;;7.30;;
55190;SDS011;41070;50.360;18.742;2022-07-01T08:59:25;10.20;;;7.30;;
55190;SDS011;41070;50.360;18.742;2022-07-01T09:01:57;9.30;;;7.50;;
55190;SDS011;41070;50.360;18.742;2022-07-01T09:04:26;10.70;;;8.00;;
55190;SDS011;41070;50.360;18.742;2022-07-01T09:07:17;9.20;;;7.90;;
55190;SDS011;41070;50.360;18.742;2022-07-01T09:09:43;11.10;;;6.60;;
55190;SDS011;41070;50.360;18.742;2022-07-01T09:12:11;8.60;;;7.40;;
55190;SDS011;41070;50.360;18.742;2022-07-01T09:14:38;8.00;;;6.90;;
55190;SDS011;41070;50.360;18.742;2022-07-01T09:17:09;9.60;;;6.70;;
55190;SDS011;41070;50.360;18.742;2022-07-01T09:19:48;9.60;;;6.70;;
55190;SDS011;41070;50.360;18.742;2022-07-01T09:22:20;9.50;;;7.20;;
55190;SDS011;41070;50.360;18.742;2022-07-01T09:24:50;8.20;;;6.60;;
55190;SDS011;41070;50.360;18.742;2022-07-01T09:27:21;9.40;;;6.20;;
55190;SDS011;41070;50.360;18.742;2022-07-01T09:29:58;9.20;;;6.50;;
55190;SDS011;41070;50.360;18.742;2022-07-01T09:32:25;10.60;;;7.00;;
55190;SDS011;41070;50.360;18.742;2022-07-01T09:34:53;10.30;;;6.90;;
55190;SDS011;41070;50.360;18.742;2022-07-01T09:37:21;8.70;;;7.00;;
55190;SDS011;41070;50.360;18.742;2022-07-01T09:42:25;12.90;;;6.40;;
55190;SDS011;41070;50.360;18.742;2022-07-01T09:45:03;10.30;;;7.00;;
55190;SDS011;41070;50.360;18.742;2022-07-01T09:47:34;10.70;;;6.90;;
55190;SDS011;41070;50.360;18.742;2022-07-01T09:50:08;8.80;;;6.50;;
55190;SDS011;41070;50.360;18.742;2022-07-01T09:52:36;7.20;;;6.00;;
55190;SDS011;41070;50.360;18.742;2022-07-01T09:55:05;7.30;;;6.10;;
55190;SDS011;41070;50.360;18.742;2022-07-01T09:57:37;10.50;;;6.40;;
55190;SDS011;41070;50.360;18.742;2022-07-01T10:00:06;10.30;;;6.10;;
55190;SDS011;41070;50.360;18.742;2022-07-01T10:02:36;8.70;;;6.50;;
55190;SDS011;41070;50.360;18.742;2022-07-01T10:05:08;9.00;;;6.70;;
55190;SDS011;41070;50.360;18.742;2022-07-01T10:13:30;10.50;;;7.30;;
55190;SDS011;41070;50.360;18.742;2022-07-01T10:16:01;8.90;;;7.00;;
55190;SDS011;41070;50.360;18.742;2022-07-01T10:18:31;7.30;;;6.40;;
55190;SDS011;41070;50.360;18.742;2022-07-01T10:21:03;9.00;;;7.00;;
55190;SDS011;41070;50.360;18.742;2022-07-01T10:23:38;8.80;;;6.30;;
55190;SDS011;41070;50.360;18.742;2022-07-01T10:26:08;7.00;;;6.20;;
55190;SDS011;41070;50.360;18.742;2022-07-01T10:28:44;10.40;;;6.30;;
55190;SDS011;41070;50.360;18.742;2022-07-01T10:31:19;7.80;;;6.50;;
55190;SDS011;41070;50.360;18.742;2022-07-01T10:34:06;9.90;;;5.50;;
55190;SDS011;41070;50.360;18.742;2022-07-01T10:36:35;10.60;;;6.00;;
55190;SDS011;41070;50.360;18.742;2022-07-01T10:39:08;8.60;;;6.10;;
55190;SDS011;41070;50.360;18.742;2022-07-01T10:44:15;6.70;;;5.70;;
55190;SDS011;41070;50.360;18.742;2022-07-01T10:46:46;9.20;;;5.00;;
55190;SDS011;41070;50.360;18.742;2022-07-01T10:52:35;7.10;;;4.50;;
55190;SDS011;41070;50.360;18.742;2022-07-01T10:55:15;5.60;;;4.90;;
55190;SDS011;41070;50.360;18.742;2022-07-01T10:57:43;6.40;;;4.20;;
55190;SDS011;41070;50.360;18.742;2022-07-01T11:00:26;7.40;;;4.90;;
55190;SDS011;41070;50.360;18.742;2022-07-01T11:03:14;7.90;;;4.20;;
55190;SDS011;41070;50.360;18.742;2022-07-01T11:05:51;5.40;;;4.10;;
55190;SDS011;41070;50.360;18.742;2022-07-01T11:08:21;9.40;;;4.80;;
55190;SDS011;41070;50.360;18.742;2022-07-01T11:10:50;5.30;;;3.90;;
55190;SDS011;41070;50.360;18.742;2022-07-01T11:13:21;7.50;;;4.20;;
55190;SDS011;41070;50.360;18.742;2022-07-01T11:15:49;6.10;;;4.60;;
55190;SDS011;41070;50.360;18.742;2022-07-01T11:18:17;7.50;;;4.90;;
55190;SDS011;41070;50.360;18.742;2022-07-01T11:20:45;5.80;;;5.00;;
55190;SDS011;41070;50.360;18.742;2022-07-01T11:23:20;8.70;;;5.10;;
55190;SDS011;41070;50.360;18.742;2022-07-01T11:25:49;9.30;;;5.40;;
55190;SDS011;41070;50.360;18.742;2022-07-01T11:28:16;6.20;;;4.80;;
55190;SDS011;41070;50.360;18.742;2022-07-01T11:30:44;7.50;;;5.30;;
55190;SDS011;41070;50.360;18.742;2022-07-01T11:33:11;5.20;;;4.40;;
55190;SDS011;41070;50.360;18.742;2022-07-01T11:35:39;6.10;;;4.80;;
55190;SDS011;41070;50.360;18.742;2022-07-01T11:38:33;6.00;;;4.70;;
55190;SDS011;41070;50.360;18.742;2022-07-01T11:41:19;5.30;;;4.70;;
55190;SDS011;41070;50.360;18.742;2022-07-01T11:43:52;5.50;;;4.40;;
55190;SDS011;41070;50.360;18.742;2022-07-01T11:46:20;6.20;;;4.30;;
55190;SDS011;41070;50.360;18.742;2022-07-01T11:48:51;7.80;;;4.50;;
55190;SDS011;41070;50.360;18.742;2022-07-01T11:51:22;6.40;;;4.20;;
55190;SDS011;41070;50.360;18.742;2022-07-01T11:53:53;7.00;;;5.00;;
55190;SDS011;41070;50.360;18.742;2022-07-01T11:56:34;6.70;;;4.60;;
55190;SDS011;41070;50.360;18.742;2022-07-01T11:59:07;5.30;;;4.60;;
55190;SDS011;41070;50.360;18.742;2022-07-01T12:01:35;6.10;;;4.80;;
55190;SDS011;41070;50.360;18.742;2022-07-01T12:04:06;5.00;;;4.30;;
55190;SDS011;41070;50.360;18.742;2022-07-01T12:06:36;6.20;;;4.90;;
55190;SDS011;41070;50.360;18.742;2022-07-01T12:09:05;9.50;;;5.30;;
55190;SDS011;41070;50.360;18.742;2022-07-01T12:11:33;7.50;;;4.30;;
55190;SDS011;41070;50.360;18.742;2022-07-01T12:14:01;5.40;;;3.80;;
55190;SDS011;41070;50.360;18.742;2022-07-01T12:16:36;6.60;;;4.60;;
55190;SDS011;41070;50.360;18.742;2022-07-01T12:19:10;5.60;;;4.40;;
55190;SDS011;41070;50.360;18.742;2022-07-01T12:21:50;5.60;;;4.40;;
55190;SDS011;41070;50.360;18.742;2022-07-01T12:24:37;5.10;;;4.30;;
55190;SDS011;41070;50.360;18.742;2022-07-01T12:27:06;6.10;;;4.50;;
55190;SDS011;41070;50.360;18.742;2022-07-01T12:32:15;5.90;;;4.70;;
55190;SDS011;41070;50.360;18.742;2022-07-01T12:34:52;7.40;;;3.80;;
55190;SDS011;41070;50.360;18.742;2022-07-01T12:37:26;9.80;;;4.70;;
55190;SDS011;41070;50.360;18.742;2022-07-01T12:40:02;6.10;;;4.80;;
55190;SDS011;41070;50.360;18.742;2022-07-01T12:42:35;5.10;;;3.80;;
55190;SDS011;41070;50.360;18.742;2022-07-01T12:45:05;5.20;;;4.40;;
55190;SDS011;41070;50.360;18.742;2022-07-01T12:47:37;5.90;;;4.60;;
55190;SDS011;41070;50.360;18.742;2022-07-01T12:50:25;6.20;;;5.30;;
55190;SDS011;41070;50.360;18.742;2022-07-01T12:52:58;5.40;;;4.60;;
55190;SDS011;41070;50.360;18.742;2022-07-01T12:55:27;4.90;;;4.50;;
55190;SDS011;41070;50.360;18.742;2022-07-01T12:58:00;6.60;;;5.60;;
55190;SDS011;41070;50.360;18.742;2022-07-01T13:00:29;5.80;;;5.00;;
55190;SDS011;41070;50.360;18.742;2022-07-01T13:03:01;8.10;;;4.60;;
55190;SDS011;41070;50.360;18.742;2022-07-01T13:05:30;5.80;;;5.10;;
55190;SDS011;41070;50.360;18.742;2022-07-01T13:07:59;6.60;;;4.80;;
55190;SDS011;41070;50.360;18.742;2022-07-01T13:10:27;7.00;;;5.20;;
55190;SDS011;41070;50.360;18.742;2022-07-01T13:12:55;5.30;;;4.90;;
55190;SDS011;41070;50.360;18.742;2022-07-01T13:15:25;6.90;;;5.10;;
55190;SDS011;41070;50.360;18.742;2022-07-01T13:17:53;6.00;;;5.00;;
55190;SDS011;41070;50.360;18.742;2022-07-01T13:20:21;8.80;;;5.30;;
55190;SDS011;41070;50.360;18.742;2022-07-01T13:22:49;6.10;;;4.80;;
55190;SDS011;41070;50.360;18.742;2022-07-01T13:25:19;7.00;;;5.40;;
55190;SDS011;41070;50.360;18.742;2022-07-01T13:27:47;6.10;;;5.20;;
55190;SDS011;41070;50.360;18.742;2022-07-01T13:30:17;7.70;;;6.20;;
55190;SDS011;41070;50.360;18.742;2022-07-01T13:32:45;6.20;;;5.60;;
55190;SDS011;41070;50.360;18.742;2022-07-01T13:35:13;6.50;;;5.60;;
55190;SDS011;41070;50.360;18.742;2022-07-01T13:37:49;7.40;;;6.60;;
55190;SDS011;41070;50.360;18.742;2022-07-01T13:40:17;7.20;;;5.80;;
55190;SDS011;41070;50.360;18.742;2022-07-01T13:42:45;6.20;;;5.70;;
55190;SDS011;41070;50.360;18.742;2022-07-01T13:45:13;6.70;;;5.80;;
55190;SDS011;41070;50.360;18.742;2022-07-01T13:47:40;10.30;;;6.50;;
55190;SDS011;41070;50.360;18.742;2022-07-01T13:50:08;6.40;;;5.80;;
55190;SDS011;41070;50.360;18.742;2022-07-01T13:52:39;5.90;;;5.40;;
55190;SDS011;41070;50.360;18.742;2022-07-01T13:55:06;8.50;;;5.20;;
55190;SDS011;41070;50.360;18.742;2022-07-01T13:57:34;5.80;;;5.20;;
55190;SDS011;41070;50.360;18.742;2022-07-01T14:00:05;7.70;;;6.00;;
55190;SDS011;41070;50.360;18.742;2022-07-01T14:02:33;7.10;;;5.50;;
55190;SDS011;41070;50.360;18.742;2022-07-01T14:05:03;8.20;;;6.60;;
55190;SDS011;41070;50.360;18.742;2022-07-01T14:07:31;7.40;;;5.70;;
55190;SDS011;41070;50.360;18.742;2022-07-01T14:09:58;6.30;;;5.70;;
55190;SDS011;41070;50.360;18.742;2022-07-01T14:12:29;6.10;;;5.40;;
55190;SDS011;41070;50.360;18.742;2022-07-01T14:14:57;8.10;;;5.60;;
55190;SDS011;41070;50.360;18.742;2022-07-01T14:17:25;6.80;;;6.00;;
55190;SDS011;41070;50.360;18.742;2022-07-01T14:19:56;7.20;;;6.60;;
55190;SDS011;41070;50.360;18.742;2022-07-01T14:22:24;11.70;;;6.60;;
55190;SDS011;41070;50.360;18.742;2022-07-01T14:24:52;8.20;;;6.70;;
55190;SDS011;41070;50.360;18.742;2022-07-01T14:27:20;7.70;;;6.50;;
55190;SDS011;41070;50.360;18.742;2022-07-01T14:32:39;7.60;;;6.90;;
55190;SDS011;41070;50.360;18.742;2022-07-01T14:35:07;7.70;;;5.90;;
55190;SDS011;41070;50.360;18.742;2022-07-01T14:37:35;10.40;;;6.70;;
55190;SDS011;41070;50.360;18.742;2022-07-01T14:40:05;7.30;;;6.50;;
55190;SDS011;41070;50.360;18.742;2022-07-01T14:42:34;7.80;;;6.50;;
55190;SDS011;41070;50.360;18.742;2022-07-01T14:45:05;7.30;;;6.70;;
55190;SDS011;41070;50.360;18.742;2022-07-01T14:47:38;7.80;;;7.00;;
55190;SDS011;41070;50.360;18.742;2022-07-01T14:50:06;8.20;;;7.20;;
55190;SDS011;41070;50.360;18.742;2022-07-01T14:52:34;7.30;;;6.50;;
55190;SDS011;41070;50.360;18.742;2022-07-01T14:55:02;7.70;;;6.80;;
55190;SDS011;41070;50.360;18.742;2022-07-01T14:57:30;7.40;;;6.70;;
55190;SDS011;41070;50.360;18.742;2022-07-01T15:00:01;7.50;;;6.90;;
55190;SDS011;41070;50.360;18.742;2022-07-01T15:02:32;12.40;;;7.10;;
55190;SDS011;41070;50.360;18.742;2022-07-01T15:05:02;8.90;;;7.30;;
55190;SDS011;41070;50.360;18.742;2022-07-01T15:07:29;7.40;;;6.50;;
55190;SDS011;41070;50.360;18.742;2022-07-01T15:09:57;7.90;;;7.10;;
55190;SDS011;41070;50.360;18.742;2022-07-01T15:12:25;7.50;;;6.80;;
55190;SDS011;41070;50.360;18.742;2022-07-01T15:14:53;9.50;;;7.30;;
55190;SDS011;41070;50.360;18.742;2022-07-01T15:17:21;8.10;;;6.80;;
55190;SDS011;41070;50.360;18.742;2022-07-01T15:19:48;6.80;;;6.20;;
55190;SDS011;41070;50.360;18.742;2022-07-01T15:22:16;8.60;;;7.80;;
55190;SDS011;41070;50.360;18.742;2022-07-01T15:24:44;7.80;;;7.00;;
55190;SDS011;41070;50.360;18.742;2022-07-01T15:27:12;8.00;;;7.00;;
55190;SDS011;41070;50.360;18.742;2022-07-01T15:29:44;10.10;;;7.90;;
55190;SDS011;41070;50.360;18.742;2022-07-01T15:32:11;8.30;;;7.00;;
55190;SDS011;41070;50.360;18.742;2022-07-01T15:34:39;8.10;;;7.30;;
55190;SDS011;41070;50.360;18.742;2022-07-01T15:37:06;7.90;;;7.10;;
55190;SDS011;41070;50.360;18.742;2022-07-01T15:39:35;8.70;;;7.40;;
55190;SDS011;41070;50.360;18.742;2022-07-01T15:42:04;7.70;;;7.00;;
55190;SDS011;41070;50.360;18.742;2022-07-01T15:44:32;8.20;;;7.40;;
55190;SDS011;41070;50.360;18.742;2022-07-01T15:47:00;7.50;;;6.90;;
55190;SDS011;41070;50.360;18.742;2022-07-01T15:49:49;8.40;;;7.60;;
55190;SDS011;41070;50.360;18.742;2022-07-01T15:52:16;9.30;;;7.30;;
55190;SDS011;41070;50.360;18.742;2022-07-01T15:54:45;8.10;;;7.40;;
55190;SDS011;41070;50.360;18.742;2022-07-01T15:57:14;7.30;;;6.70;;
55190;SDS011;41070;50.360;18.742;2022-07-01T15:59:42;9.20;;;7.50;;
55190;SDS011;41070;50.360;18.742;2022-07-01T16:02:10;8.60;;;7.90;;
55190;SDS011;41070;50.360;18.742;2022-07-01T16:04:39;7.60;;;7.00;;
55190;SDS011;41070;50.360;18.742;2022-07-01T16:09:42;9.10;;;6.90;;
55190;SDS011;41070;50.360;18.742;2022-07-01T16:12:11;10.00;;;7.40;;
55190;SDS011;41070;50.360;18.742;2022-07-01T16:14:40;7.80;;;7.00;;
55190;SDS011;41070;50.360;18.742;2022-07-01T16:17:11;10.10;;;7.60;;
55190;SDS011;41070;50.360;18.742;2022-07-01T16:19:43;8.40;;;7.60;;
55190;SDS011;41070;50.360;18.742;2022-07-01T16:22:14;8.00;;;7.30;;
55190;SDS011;41070;50.360;18.742;2022-07-01T16:24:47;8.10;;;7.40;;
55190;SDS011;41070;50.360;18.742;2022-07-01T16:27:15;7.50;;;6.90;;
55190;SDS011;41070;50.360;18.742;2022-07-01T16:29:46;8.40;;;7.50;;
55190;SDS011;41070;50.360;18.742;2022-07-01T16:32:17;10.00;;;8.50;;
55190;SDS011;41070;50.360;18.742;2022-07-01T16:34:46;13.80;;;8.40;;
55190;SDS011;41070;50.360;18.742;2022-07-01T16:37:13;9.50;;;8.60;;
55190;SDS011;41070;50.360;18.742;2022-07-01T16:39:46;8.50;;;7.70;;
55190;SDS011;41070;50.360;18.742;2022-07-01T16:42:19;9.80;;;8.70;;
55190;SDS011;41070;50.360;18.742;2022-07-01T16:47:29;12.10;;;7.80;;
55190;SDS011;41070;50.360;18.742;2022-07-01T16:49:59;10.80;;;8.80;;
55190;SDS011;41070;50.360;18.742;2022-07-01T16:52:39;9.10;;;8.10;;
55190;SDS011;41070;50.360;18.742;2022-07-01T16:55:10;9.60;;;8.60;;
55190;SDS011;41070;50.360;18.742;2022-07-01T16:57:41;12.30;;;8.60;;
55190;SDS011;41070;50.360;18.742;2022-07-01T17:00:11;9.20;;;8.20;;
55190;SDS011;41070;50.360;18.742;2022-07-01T17:02:49;10.90;;;8.50;;
55190;SDS011;41070;50.360;18.742;2022-07-01T17:05:19;11.10;;;8.60;;
55190;SDS011;41070;50.360;18.742;2022-07-01T17:07:47;9.00;;;8.10;;
55190;SDS011;41070;50.360;18.742;2022-07-01T17:10:16;9.70;;;8.70;;
55190;SDS011;41070;50.360;18.742;2022-07-01T17:12:46;10.50;;;9.40;;
55190;SDS011;41070;50.360;18.742;2022-07-01T17:15:14;13.50;;;9.80;;
55190;SDS011;41070;50.360;18.742;2022-07-01T17:17:43;14.90;;;10.40;;
55190;SDS011;41070;50.360;18.742;2022-07-01T17:20:11;14.80;;;8.90;;
55190;SDS011;41070;50.360;18.742;2022-07-01T17:25:11;14.40;;;11.10;;
55190;SDS011;41070;50.360;18.742;2022-07-01T17:30:53;14.00;;;11.30;;